sensor_id;sensor_type;location;lat;lon;timestamp;temperature;humidity
32614;DHT22;19031;51.400;6.770;2022-10-04T00:03:50;10.70;99.90
32614;DHT22;19031;51.400;6.770;2022-10-04T00:05:53;10.70;99.90
32614;DHT22;19031;51.400;6.770;2022-10-04T00:08:25;10.70;99.90
32614;DHT22;19031;51.400;6.770;2022-10-04T00:11:06;10.80;99.90
32614;DHT22;19031;51.400;6.770;2022-10-04T00:13:33;10.90;99.90
32614;DHT22;19031;51.400;6.770;2022-10-04T00:16:01;10.90;99.90
32614;DHT22;19031;51.400;6.770;2022-10-04T00:18:37;10.80;99.90
32614;DHT22;19031;51.400;6.770;2022-10-04T00:21:05;10.90;99.90
32614;DHT22;19031;51.400;6.770;2022-10-04T00:26:06;10.80;99.90
32614;DHT22;19031;51.400;6.770;2022-10-04T00:33:40;10.80;99.90
32614;DHT22;19031;51.400;6.770;2022-10-04T00:44:09;10.70;99.90
32614;DHT22;19031;51.400;6.770;2022-10-04T00:46:39;10.50;99.90
32614;DHT22;19031;51.400;6.770;2022-10-04T00:49:07;10.60;99.90
32614;DHT22;19031;51.400;6.770;2022-10-04T00:51:38;10.50;99.90
32614;DHT22;19031;51.400;6.770;2022-10-04T00:54:16;10.50;99.90
32614;DHT22;19031;51.400;6.770;2022-10-04T00:56:48;10.40;99.90
32614;DHT22;19031;51.400;6.770;2022-10-04T00:59:28;10.40;99.90
32614;DHT22;19031;51.400;6.770;2022-10-04T01:02:04;10.30;99.90
32614;DHT22;19031;51.400;6.770;2022-10-04T01:04:44;10.30;99.90
32614;DHT22;19031;51.400;6.770;2022-10-04T01:07:15;10.20;99.90
32614;DHT22;19031;51.400;6.770;2022-10-04T01:09:53;10.20;99.90
32614;DHT22;19031;51.400;6.770;2022-10-04T01:15:03;10.20;99.90
32614;DHT22;19031;51.400;6.770;2022-10-04T01:17:30;10.10;99.90
32614;DHT22;19031;51.400;6.770;2022-10-04T01:19:56;10.10;99.90
32614;DHT22;19031;51.400;6.770;2022-10-04T01:22:36;10.10;99.90
32614;DHT22;19031;51.400;6.770;2022-10-04T01:25:02;10.10;99.90
32614;DHT22;19031;51.400;6.770;2022-10-04T01:30:00;10.10;99.90
32614;DHT22;19031;51.400;6.770;2022-10-04T01:32:26;10.10;99.90
32614;DHT22;19031;51.400;6.770;2022-10-04T01:34:52;10.10;99.90
32614;DHT22;19031;51.400;6.770;2022-10-04T01:37:17;10.10;99.90
32614;DHT22;19031;51.400;6.770;2022-10-04T01:39:43;10.10;99.90
32614;DHT22;19031;51.400;6.770;2022-10-04T01:42:16;10.10;99.90
32614;DHT22;19031;51.400;6.770;2022-10-04T01:47:52;10.10;99.90
32614;DHT22;19031;51.400;6.770;2022-10-04T01:53:26;10.00;99.90
32614;DHT22;19031;51.400;6.770;2022-10-04T01:56:04;10.00;99.90
32614;DHT22;19031;51.400;6.770;2022-10-04T01:58:44;10.00;99.90
32614;DHT22;19031;51.400;6.770;2022-10-04T02:01:22;10.00;99.90
32614;DHT22;19031;51.400;6.770;2022-10-04T02:03:56;10.00;99.90
32614;DHT22;19031;51.400;6.770;2022-10-04T02:06:24;9.90;99.90
32614;DHT22;19031;51.400;6.770;2022-10-04T02:08:52;10.00;99.90
32614;DHT22;19031;51.400;6.770;2022-10-04T02:11:23;10.00;99.90
32614;DHT22;19031;51.400;6.770;2022-10-04T02:13:51;9.90;99.90
32614;DHT22;19031;51.400;6.770;2022-10-04T02:16:18;9.90;99.90
32614;DHT22;19031;51.400;6.770;2022-10-04T02:18:45;9.90;99.90
32614;DHT22;19031;51.400;6.770;2022-10-04T02:21:12;9.90;99.90
32614;DHT22;19031;51.400;6.770;2022-10-04T02:23:39;9.80;99.90
32614;DHT22;19031;51.400;6.770;2022-10-04T02:26:07;9.80;99.90
32614;DHT22;19031;51.400;6.770;2022-10-04T02:28:34;9.80;99.90
32614;DHT22;19031;51.400;6.770;2022-10-04T02:31:00;9.80;99.90
32614;DHT22;19031;51.400;6.770;2022-10-04T02:33:47;9.80;99.90
32614;DHT22;19031;51.400;6.770;2022-10-04T02:36:14;9.90;99.90
32614;DHT22;19031;51.400;6.770;2022-10-04T02:38:44;9.90;99.90
32614;DHT22;19031;51.400;6.770;2022-10-04T02:41:23;10.00;99.90
32614;DHT22;19031;51.400;6.770;2022-10-04T02:46:34;10.10;99.90
32614;DHT22;19031;51.400;6.770;2022-10-04T02:49:09;10.10;99.90
32614;DHT22;19031;51.400;6.770;2022-10-04T02:51:44;10.30;99.90
32614;DHT22;19031;51.400;6.770;2022-10-04T02:54:15;10.30;99.90
32614;DHT22;19031;51.400;6.770;2022-10-04T02:56:43;10.30;99.90
32614;DHT22;19031;51.400;6.770;2022-10-04T02:59:15;10.40;99.90
32614;DHT22;19031;51.400;6.770;2022-10-04T03:01:44;10.50;99.90
32614;DHT22;19031;51.400;6.770;2022-10-04T03:04:12;10.40;99.90
32614;DHT22;19031;51.400;6.770;2022-10-04T03:06:40;10.50;99.90
32614;DHT22;19031;51.400;6.770;2022-10-04T03:09:07;10.40;99.90
32614;DHT22;19031;51.400;6.770;2022-10-04T03:11:35;10.40;99.90
32614;DHT22;19031;51.400;6.770;2022-10-04T03:14:05;10.40;99.90
32614;DHT22;19031;51.400;6.770;2022-10-04T03:16:35;10.40;99.90
32614;DHT22;19031;51.400;6.770;2022-10-04T03:19:02;10.30;99.90
32614;DHT22;19031;51.400;6.770;2022-10-04T03:21:29;10.30;99.90
32614;DHT22;19031;51.400;6.770;2022-10-04T03:23:55;10.30;99.90
32614;DHT22;19031;51.400;6.770;2022-10-04T03:26:28;10.30;99.90
32614;DHT22;19031;51.400;6.770;2022-10-04T03:28:56;10.30;99.90
32614;DHT22;19031;51.400;6.770;2022-10-04T03:31:24;10.30;99.90
32614;DHT22;19031;51.400;6.770;2022-10-04T03:33:53;10.30;99.90
32614;DHT22;19031;51.400;6.770;2022-10-04T03:36:22;10.40;99.90
32614;DHT22;19031;51.400;6.770;2022-10-04T03:38:52;10.40;99.90
32614;DHT22;19031;51.400;6.770;2022-10-04T03:41:19;10.40;99.90
32614;DHT22;19031;51.400;6.770;2022-10-04T03:43:47;10.50;99.90
32614;DHT22;19031;51.400;6.770;2022-10-04T03:46:14;10.40;99.90
32614;DHT22;19031;51.400;6.770;2022-10-04T03:48:44;10.40;99.90
32614;DHT22;19031;51.400;6.770;2022-10-04T03:51:16;10.30;99.90
32614;DHT22;19031;51.400;6.770;2022-10-04T03:53:44;10.30;99.90
32614;DHT22;19031;51.400;6.770;2022-10-04T03:56:30;10.30;99.90
32614;DHT22;19031;51.400;6.770;2022-10-04T03:58:57;10.30;99.90
32614;DHT22;19031;51.400;6.770;2022-10-04T04:01:39;10.30;99.90
32614;DHT22;19031;51.400;6.770;2022-10-04T04:04:16;10.30;99.90
32614;DHT22;19031;51.400;6.770;2022-10-04T04:09:21;10.30;99.90
32614;DHT22;19031;51.400;6.770;2022-10-04T04:11:49;10.30;99.90
32614;DHT22;19031;51.400;6.770;2022-10-04T04:14:26;10.20;99.90
32614;DHT22;19031;51.400;6.770;2022-10-04T04:16:54;10.10;99.90
32614;DHT22;19031;51.400;6.770;2022-10-04T04:19:39;10.10;99.90
32614;DHT22;19031;51.400;6.770;2022-10-04T04:22:13;10.10;99.90
32614;DHT22;19031;51.400;6.770;2022-10-04T04:24:40;10.00;99.90
32614;DHT22;19031;51.400;6.770;2022-10-04T04:27:08;10.00;99.90
32614;DHT22;19031;51.400;6.770;2022-10-04T04:29:51;9.90;99.90
32614;DHT22;19031;51.400;6.770;2022-10-04T04:32:18;9.90;99.90
32614;DHT22;19031;51.400;6.770;2022-10-04T04:35:03;9.80;99.90
32614;DHT22;19031;51.400;6.770;2022-10-04T04:37:35;9.70;99.90
32614;DHT22;19031;51.400;6.770;2022-10-04T04:40:22;9.70;99.90
32614;DHT22;19031;51.400;6.770;2022-10-04T04:42:48;9.60;99.90
32614;DHT22;19031;51.400;6.770;2022-10-04T04:45:19;9.60;99.90
32614;DHT22;19031;51.400;6.770;2022-10-04T04:47:48;9.70;99.90
32614;DHT22;19031;51.400;6.770;2022-10-04T04:50:32;9.60;99.90
32614;DHT22;19031;51.400;6.770;2022-10-04T04:53:13;9.60;99.90
32614;DHT22;19031;51.400;6.770;2022-10-04T04:58:07;9.50;99.90
32614;DHT22;19031;51.400;6.770;2022-10-04T05:00:35;9.50;99.90
32614;DHT22;19031;51.400;6.770;2022-10-04T05:03:05;9.40;99.90
32614;DHT22;19031;51.400;6.770;2022-10-04T05:05:34;9.40;99.90
32614;DHT22;19031;51.400;6.770;2022-10-04T05:10:44;9.40;99.90
32614;DHT22;19031;51.400;6.770;2022-10-04T05:13:11;9.50;99.90
32614;DHT22;19031;51.400;6.770;2022-10-04T05:15:38;9.40;99.90
32614;DHT22;19031;51.400;6.770;2022-10-04T05:18:26;9.40;99.90
32614;DHT22;19031;51.400;6.770;2022-10-04T05:20:54;9.50;99.90
32614;DHT22;19031;51.400;6.770;2022-10-04T05:23:20;9.50;99.90
32614;DHT22;19031;51.400;6.770;2022-10-04T05:25:47;9.50;99.90
32614;DHT22;19031;51.400;6.770;2022-10-04T05:28:14;9.50;99.90
32614;DHT22;19031;51.400;6.770;2022-10-04T05:33:38;9.40;99.90
32614;DHT22;19031;51.400;6.770;2022-10-04T05:41:53;9.40;99.90
32614;DHT22;19031;51.400;6.770;2022-10-04T05:44:25;9.30;99.90
32614;DHT22;19031;51.400;6.770;2022-10-04T05:46:56;9.40;99.90
32614;DHT22;19031;51.400;6.770;2022-10-04T05:49:25;9.20;99.90
32614;DHT22;19031;51.400;6.770;2022-10-04T05:51:59;9.30;99.90
32614;DHT22;19031;51.400;6.770;2022-10-04T05:54:28;9.30;99.90
32614;DHT22;19031;51.400;6.770;2022-10-04T05:57:09;9.30;99.90
32614;DHT22;19031;51.400;6.770;2022-10-04T05:59:53;9.30;99.90
32614;DHT22;19031;51.400;6.770;2022-10-04T06:02:35;9.30;99.90
32614;DHT22;19031;51.400;6.770;2022-10-04T06:05:27;9.20;99.90
32614;DHT22;19031;51.400;6.770;2022-10-04T06:16:19;9.40;99.90
32614;DHT22;19031;51.400;6.770;2022-10-04T06:24:24;9.40;99.90
32614;DHT22;19031;51.400;6.770;2022-10-04T06:27:07;9.40;99.90
32614;DHT22;19031;51.400;6.770;2022-10-04T06:29:38;9.50;99.90
32614;DHT22;19031;51.400;6.770;2022-10-04T06:32:13;9.60;99.90
32614;DHT22;19031;51.400;6.770;2022-10-04T06:46:16;9.90;99.90
32614;DHT22;19031;51.400;6.770;2022-10-04T07:00:01;10.40;99.90
32614;DHT22;19031;51.400;6.770;2022-10-04T07:03:11;10.40;99.90
32614;DHT22;19031;51.400;6.770;2022-10-04T07:05:52;10.60;99.90
32614;DHT22;19031;51.400;6.770;2022-10-04T07:08:36;10.60;99.90
32614;DHT22;19031;51.400;6.770;2022-10-04T07:13:50;11.00;99.90
32614;DHT22;19031;51.400;6.770;2022-10-04T07:25:14;11.50;99.90
32614;DHT22;19031;51.400;6.770;2022-10-04T07:27:17;11.50;99.90
32614;DHT22;19031;51.400;6.770;2022-10-04T07:29:46;11.70;99.90
32614;DHT22;19031;51.400;6.770;2022-10-04T07:32:22;11.90;99.90
32614;DHT22;19031;51.400;6.770;2022-10-04T07:34:52;12.00;99.90
32614;DHT22;19031;51.400;6.770;2022-10-04T07:37:19;12.10;99.90
32614;DHT22;19031;51.400;6.770;2022-10-04T07:45:09;12.40;99.90
32614;DHT22;19031;51.400;6.770;2022-10-04T07:47:35;12.40;99.90
32614;DHT22;19031;51.400;6.770;2022-10-04T07:56:10;12.30;99.90
32614;DHT22;19031;51.400;6.770;2022-10-04T07:58:54;12.20;99.90
32614;DHT22;19031;51.400;6.770;2022-10-04T08:04:31;12.10;99.90
32614;DHT22;19031;51.400;6.770;2022-10-04T08:07:06;12.00;99.90
32614;DHT22;19031;51.400;6.770;2022-10-04T08:17:46;12.80;99.90
32614;DHT22;19031;51.400;6.770;2022-10-04T08:39:00;18.00;1.00
32614;DHT22;19031;51.400;6.770;2022-10-04T08:44:33;19.10;1.00
32614;DHT22;19031;51.400;6.770;2022-10-04T08:56:57;18.10;1.00
32614;DHT22;19031;51.400;6.770;2022-10-04T09:12:52;20.10;99.90
32614;DHT22;19031;51.400;6.770;2022-10-04T09:20:55;21.50;99.90
32614;DHT22;19031;51.400;6.770;2022-10-04T09:35:52;20.70;99.90
32614;DHT22;19031;51.400;6.770;2022-10-04T09:38:37;21.20;99.90
32614;DHT22;19031;51.400;6.770;2022-10-04T09:41:21;21.30;99.90
32614;DHT22;19031;51.400;6.770;2022-10-04T09:43:58;21.90;83.60
32614;DHT22;19031;51.400;6.770;2022-10-04T09:49:36;23.00;94.20
32614;DHT22;19031;51.400;6.770;2022-10-04T09:55:07;23.10;1.00
32614;DHT22;19031;51.400;6.770;2022-10-04T10:00:23;23.60;1.00
32614;DHT22;19031;51.400;6.770;2022-10-04T10:03:17;24.20;1.00
32614;DHT22;19031;51.400;6.770;2022-10-04T10:11:09;25.40;1.00
32614;DHT22;19031;51.400;6.770;2022-10-04T10:20:02;26.80;99.90
32614;DHT22;19031;51.400;6.770;2022-10-04T10:37:16;27.60;99.90
32614;DHT22;19031;51.400;6.770;2022-10-04T10:40:06;27.60;99.90
32614;DHT22;19031;51.400;6.770;2022-10-04T10:45:46;28.50;1.00
32614;DHT22;19031;51.400;6.770;2022-10-04T10:50:53;28.20;1.00
32614;DHT22;19031;51.400;6.770;2022-10-04T10:56:49;28.70;99.90
32614;DHT22;19031;51.400;6.770;2022-10-04T11:02:39;28.50;99.90
32614;DHT22;19031;51.400;6.770;2022-10-04T11:05:18;28.50;99.90
32614;DHT22;19031;51.400;6.770;2022-10-04T11:08:19;28.70;99.90
32614;DHT22;19031;51.400;6.770;2022-10-04T11:14:17;29.10;99.90
32614;DHT22;19031;51.400;6.770;2022-10-04T11:31:37;29.30;99.90
32614;DHT22;19031;51.400;6.770;2022-10-04T11:59:26;28.60;99.90
32614;DHT22;19031;51.400;6.770;2022-10-04T12:07:42;29.70;99.90
32614;DHT22;19031;51.400;6.770;2022-10-04T12:43:39;29.00;99.90
32614;DHT22;19031;51.400;6.770;2022-10-04T12:54:08;29.40;99.90
32614;DHT22;19031;51.400;6.770;2022-10-04T12:59:26;29.50;99.90
32614;DHT22;19031;51.400;6.770;2022-10-04T13:10:50;29.20;99.90
32614;DHT22;19031;51.400;6.770;2022-10-04T13:13:43;29.70;99.90
32614;DHT22;19031;51.400;6.770;2022-10-04T13:32:39;28.90;99.90
32614;DHT22;19031;51.400;6.770;2022-10-04T13:53:47;29.10;99.90
32614;DHT22;19031;51.400;6.770;2022-10-04T14:17:10;29.90;99.90
32614;DHT22;19031;51.400;6.770;2022-10-04T14:27:21;29.70;99.90
32614;DHT22;19031;51.400;6.770;2022-10-04T14:30:09;29.40;99.90
32614;DHT22;19031;51.400;6.770;2022-10-04T14:35:55;29.70;99.90
32614;DHT22;19031;51.400;6.770;2022-10-04T14:41:56;28.80;99.90
32614;DHT22;19031;51.400;6.770;2022-10-04T14:44:39;29.00;99.90
32614;DHT22;19031;51.400;6.770;2022-10-04T14:52:34;28.20;99.90
32614;DHT22;19031;51.400;6.770;2022-10-04T15:00:16;27.20;99.90
32614;DHT22;19031;51.400;6.770;2022-10-04T15:03:24;26.40;99.90
32614;DHT22;19031;51.400;6.770;2022-10-04T15:11:02;26.00;13.20
32614;DHT22;19031;51.400;6.770;2022-10-04T15:13:53;25.80;99.90
32614;DHT22;19031;51.400;6.770;2022-10-04T15:16:55;25.60;1.00
32614;DHT22;19031;51.400;6.770;2022-10-04T15:22:03;25.20;99.90
32614;DHT22;19031;51.400;6.770;2022-10-04T15:24:48;25.00;1.00
32614;DHT22;19031;51.400;6.770;2022-10-04T15:36:14;23.20;99.90
32614;DHT22;19031;51.400;6.770;2022-10-04T15:38:55;22.70;99.90
32614;DHT22;19031;51.400;6.770;2022-10-04T15:50:01;21.00;99.90
32614;DHT22;19031;51.400;6.770;2022-10-04T15:55:19;20.40;99.90
32614;DHT22;19031;51.400;6.770;2022-10-04T16:01:00;20.00;99.90
32614;DHT22;19031;51.400;6.770;2022-10-04T16:09:46;19.30;1.00
32614;DHT22;19031;51.400;6.770;2022-10-04T16:12:51;19.10;1.00
32614;DHT22;19031;51.400;6.770;2022-10-04T16:15:29;18.90;1.00
32614;DHT22;19031;51.400;6.770;2022-10-04T16:17:57;18.70;1.00
32614;DHT22;19031;51.400;6.770;2022-10-04T16:23:41;18.30;1.00
32614;DHT22;19031;51.400;6.770;2022-10-04T16:36:57;17.30;32.90
32614;DHT22;19031;51.400;6.770;2022-10-04T16:39:56;17.20;37.80
32614;DHT22;19031;51.400;6.770;2022-10-04T16:48:29;16.70;56.20
32614;DHT22;19031;51.400;6.770;2022-10-04T16:56:17;16.20;69.00
32614;DHT22;19031;51.400;6.770;2022-10-04T17:01:29;15.90;75.00
32614;DHT22;19031;51.400;6.770;2022-10-04T17:06:53;15.60;81.20
32614;DHT22;19031;51.400;6.770;2022-10-04T17:09:26;15.50;83.90
32614;DHT22;19031;51.400;6.770;2022-10-04T17:20:02;14.90;92.50
32614;DHT22;19031;51.400;6.770;2022-10-04T17:28:33;14.50;95.40
32614;DHT22;19031;51.400;6.770;2022-10-04T17:31:12;14.40;95.70
32614;DHT22;19031;51.400;6.770;2022-10-04T17:33:56;14.30;96.30
32614;DHT22;19031;51.400;6.770;2022-10-04T17:36:32;14.20;97.00
32614;DHT22;19031;51.400;6.770;2022-10-04T17:44:22;13.90;98.70
32614;DHT22;19031;51.400;6.770;2022-10-04T17:52:41;13.70;99.90
32614;DHT22;19031;51.400;6.770;2022-10-04T17:55:50;13.60;99.90
32614;DHT22;19031;51.400;6.770;2022-10-04T17:58:55;13.50;99.90
32614;DHT22;19031;51.400;6.770;2022-10-04T18:01:35;13.40;99.90
32614;DHT22;19031;51.400;6.770;2022-10-04T18:06:53;13.30;99.90
32614;DHT22;19031;51.400;6.770;2022-10-04T18:09:29;13.20;99.90
32614;DHT22;19031;51.400;6.770;2022-10-04T18:12:08;13.20;99.90
32614;DHT22;19031;51.400;6.770;2022-10-04T18:17:07;13.00;99.90
32614;DHT22;19031;51.400;6.770;2022-10-04T18:20:29;13.00;99.90
32614;DHT22;19031;51.400;6.770;2022-10-04T18:22:49;12.90;99.90
32614;DHT22;19031;51.400;6.770;2022-10-04T18:25:20;12.90;99.90
32614;DHT22;19031;51.400;6.770;2022-10-04T18:28:10;12.90;99.90
32614;DHT22;19031;51.400;6.770;2022-10-04T18:33:42;12.60;99.90
32614;DHT22;19031;51.400;6.770;2022-10-04T18:36:19;12.70;99.90
32614;DHT22;19031;51.400;6.770;2022-10-04T18:41:41;12.70;99.90
32614;DHT22;19031;51.400;6.770;2022-10-04T18:44:20;12.70;99.90
32614;DHT22;19031;51.400;6.770;2022-10-04T18:46:47;12.60;99.90
32614;DHT22;19031;51.400;6.770;2022-10-04T18:49:29;12.60;99.90
32614;DHT22;19031;51.400;6.770;2022-10-04T19:00:13;12.40;99.90
32614;DHT22;19031;51.400;6.770;2022-10-04T19:05:50;12.40;99.90
32614;DHT22;19031;51.400;6.770;2022-10-04T19:25:04;12.40;99.90
32614;DHT22;19031;51.400;6.770;2022-10-04T19:28:06;12.50;99.90
32614;DHT22;19031;51.400;6.770;2022-10-04T19:44:55;12.40;99.90
32614;DHT22;19031;51.400;6.770;2022-10-04T19:49:54;12.30;99.90
32614;DHT22;19031;51.400;6.770;2022-10-04T19:52:29;12.20;99.90
32614;DHT22;19031;51.400;6.770;2022-10-04T19:55:19;12.10;99.90
32614;DHT22;19031;51.400;6.770;2022-10-04T19:57:54;12.10;99.90
32614;DHT22;19031;51.400;6.770;2022-10-04T20:00:22;12.10;99.90
32614;DHT22;19031;51.400;6.770;2022-10-04T20:02:48;12.10;99.90
32614;DHT22;19031;51.400;6.770;2022-10-04T20:05:16;12.10;99.90
32614;DHT22;19031;51.400;6.770;2022-10-04T20:07:50;12.00;99.90
32614;DHT22;19031;51.400;6.770;2022-10-04T20:10:35;11.90;99.90
32614;DHT22;19031;51.400;6.770;2022-10-04T20:13:34;11.90;99.90
32614;DHT22;19031;51.400;6.770;2022-10-04T20:16:00;11.90;99.90
32614;DHT22;19031;51.400;6.770;2022-10-04T20:23:46;11.80;99.90
32614;DHT22;19031;51.400;6.770;2022-10-04T20:29:06;11.70;99.90
32614;DHT22;19031;51.400;6.770;2022-10-04T20:34:22;11.60;99.90
32614;DHT22;19031;51.400;6.770;2022-10-04T20:36:57;11.60;99.90
32614;DHT22;19031;51.400;6.770;2022-10-04T20:49:49;11.40;99.90
32614;DHT22;19031;51.400;6.770;2022-10-04T20:52:16;11.30;99.90
32614;DHT22;19031;51.400;6.770;2022-10-04T20:54:49;11.30;99.90
32614;DHT22;19031;51.400;6.770;2022-10-04T20:57:17;11.30;99.90
32614;DHT22;19031;51.400;6.770;2022-10-04T20:59:46;11.30;99.90
32614;DHT22;19031;51.400;6.770;2022-10-04T21:02:15;11.10;99.90
32614;DHT22;19031;51.400;6.770;2022-10-04T21:04:42;11.20;99.90
32614;DHT22;19031;51.400;6.770;2022-10-04T21:07:22;11.30;99.90
32614;DHT22;19031;51.400;6.770;2022-10-04T21:09:48;11.10;99.90
32614;DHT22;19031;51.400;6.770;2022-10-04T21:15:17;11.10;99.90
32614;DHT22;19031;51.400;6.770;2022-10-04T21:18:04;11.00;99.90
32614;DHT22;19031;51.400;6.770;2022-10-04T21:20:48;10.90;99.90
32614;DHT22;19031;51.400;6.770;2022-10-04T21:23:40;10.90;99.90
32614;DHT22;19031;51.400;6.770;2022-10-04T21:26:21;10.90;99.90
32614;DHT22;19031;51.400;6.770;2022-10-04T21:28:53;10.90;99.90
32614;DHT22;19031;51.400;6.770;2022-10-04T21:31:19;10.90;99.90
32614;DHT22;19031;51.400;6.770;2022-10-04T21:33:44;10.90;99.90
32614;DHT22;19031;51.400;6.770;2022-10-04T21:36:10;10.80;99.90
32614;DHT22;19031;51.400;6.770;2022-10-04T21:38:35;10.80;99.90
32614;DHT22;19031;51.400;6.770;2022-10-04T21:41:01;10.60;99.90
32614;DHT22;19031;51.400;6.770;2022-10-04T21:43:27;10.70;99.90
32614;DHT22;19031;51.400;6.770;2022-10-04T21:45:53;10.60;99.90
32614;DHT22;19031;51.400;6.770;2022-10-04T21:48:19;10.50;99.90
32614;DHT22;19031;51.400;6.770;2022-10-04T21:50:48;10.60;99.90
32614;DHT22;19031;51.400;6.770;2022-10-04T21:53:14;10.60;99.90
32614;DHT22;19031;51.400;6.770;2022-10-04T21:55:40;10.60;99.90
32614;DHT22;19031;51.400;6.770;2022-10-04T21:58:05;10.60;99.90
32614;DHT22;19031;51.400;6.770;2022-10-04T22:00:31;10.70;99.90
32614;DHT22;19031;51.400;6.770;2022-10-04T22:02:57;10.70;99.90
32614;DHT22;19031;51.400;6.770;2022-10-04T22:05:22;10.70;99.90
32614;DHT22;19031;51.400;6.770;2022-10-04T22:07:48;10.70;99.90
32614;DHT22;19031;51.400;6.770;2022-10-04T22:10:13;10.80;99.90
32614;DHT22;19031;51.400;6.770;2022-10-04T22:12:39;10.80;99.90
32614;DHT22;19031;51.400;6.770;2022-10-04T22:15:05;10.80;99.90
32614;DHT22;19031;51.400;6.770;2022-10-04T22:17:31;10.80;99.90
32614;DHT22;19031;51.400;6.770;2022-10-04T22:19:57;10.80;99.90
32614;DHT22;19031;51.400;6.770;2022-10-04T22:22:22;10.70;99.90
32614;DHT22;19031;51.400;6.770;2022-10-04T22:24:48;10.70;99.90
32614;DHT22;19031;51.400;6.770;2022-10-04T22:27:15;10.70;99.90
32614;DHT22;19031;51.400;6.770;2022-10-04T22:29:42;10.60;99.90
32614;DHT22;19031;51.400;6.770;2022-10-04T22:32:26;10.50;99.90
32614;DHT22;19031;51.400;6.770;2022-10-04T22:35:13;10.60;99.90
32614;DHT22;19031;51.400;6.770;2022-10-04T22:37:40;10.60;99.90
32614;DHT22;19031;51.400;6.770;2022-10-04T22:40:23;10.50;99.90
32614;DHT22;19031;51.400;6.770;2022-10-04T22:42:54;10.50;99.90
32614;DHT22;19031;51.400;6.770;2022-10-04T22:45:26;10.50;99.90
32614;DHT22;19031;51.400;6.770;2022-10-04T22:47:55;10.50;99.90
32614;DHT22;19031;51.400;6.770;2022-10-04T22:50:28;10.50;99.90
32614;DHT22;19031;51.400;6.770;2022-10-04T22:52:54;10.50;99.90
32614;DHT22;19031;51.400;6.770;2022-10-04T22:55:19;10.50;99.90
32614;DHT22;19031;51.400;6.770;2022-10-04T22:57:45;10.50;99.90
32614;DHT22;19031;51.400;6.770;2022-10-04T23:00:11;10.40;99.90
32614;DHT22;19031;51.400;6.770;2022-10-04T23:02:37;10.40;99.90
32614;DHT22;19031;51.400;6.770;2022-10-04T23:05:16;10.40;99.90
32614;DHT22;19031;51.400;6.770;2022-10-04T23:07:43;10.40;99.90
32614;DHT22;19031;51.400;6.770;2022-10-04T23:10:10;10.40;99.90
32614;DHT22;19031;51.400;6.770;2022-10-04T23:12:37;10.40;99.90
32614;DHT22;19031;51.400;6.770;2022-10-04T23:15:04;10.40;99.90
32614;DHT22;19031;51.400;6.770;2022-10-04T23:17:35;10.40;99.90
32614;DHT22;19031;51.400;6.770;2022-10-04T23:22:29;10.30;99.90
32614;DHT22;19031;51.400;6.770;2022-10-04T23:24:55;10.30;99.90
32614;DHT22;19031;51.400;6.770;2022-10-04T23:27:21;10.30;99.90
32614;DHT22;19031;51.400;6.770;2022-10-04T23:29:48;10.30;99.90
32614;DHT22;19031;51.400;6.770;2022-10-04T23:32:16;10.30;99.90
32614;DHT22;19031;51.400;6.770;2022-10-04T23:34:47;10.20;99.90
32614;DHT22;19031;51.400;6.770;2022-10-04T23:37:21;10.20;99.90
32614;DHT22;19031;51.400;6.770;2022-10-04T23:39:48;10.20;99.90
32614;DHT22;19031;51.400;6.770;2022-10-04T23:42:23;10.10;99.90
32614;DHT22;19031;51.400;6.770;2022-10-04T23:44:59;10.00;99.90
32614;DHT22;19031;51.400;6.770;2022-10-04T23:47:31;10.00;99.90
32614;DHT22;19031;51.400;6.770;2022-10-04T23:49:57;10.10;99.90
32614;DHT22;19031;51.400;6.770;2022-10-04T23:52:34;10.00;99.90
32614;DHT22;19031;51.400;6.770;2022-10-04T23:55:00;10.00;99.90
32614;DHT22;19031;51.400;6.770;2022-10-04T23:57:28;10.00;99.90
32614;DHT22;19031;51.400;6.770;2022-10-04T23:59:57;10.10;99.90
